sensor_id;sensor_type;location;lat;lon;timestamp;temperature;humidity
22734;DHT22;11534;51.994;5.692;2023-05-17T00:01:49;9.40;99.90
22734;DHT22;11534;51.994;5.692;2023-05-17T00:04:15;9.40;99.90
22734;DHT22;11534;51.994;5.692;2023-05-17T00:06:41;9.30;99.90
22734;DHT22;11534;51.994;5.692;2023-05-17T00:09:07;9.30;99.90
22734;DHT22;11534;51.994;5.692;2023-05-17T00:11:33;9.30;99.90
22734;DHT22;11534;51.994;5.692;2023-05-17T00:13:59;9.30;99.90
22734;DHT22;11534;51.994;5.692;2023-05-17T00:16:25;9.30;99.90
22734;DHT22;11534;51.994;5.692;2023-05-17T00:18:50;9.30;99.90
22734;DHT22;11534;51.994;5.692;2023-05-17T00:21:16;9.30;99.90
22734;DHT22;11534;51.994;5.692;2023-05-17T00:23:42;9.30;99.90
22734;DHT22;11534;51.994;5.692;2023-05-17T00:26:08;9.20;99.90
22734;DHT22;11534;51.994;5.692;2023-05-17T00:28:34;9.20;99.90
22734;DHT22;11534;51.994;5.692;2023-05-17T00:30:59;9.20;99.90
22734;DHT22;11534;51.994;5.692;2023-05-17T00:33:25;9.20;99.90
22734;DHT22;11534;51.994;5.692;2023-05-17T00:35:51;9.20;99.90
22734;DHT22;11534;51.994;5.692;2023-05-17T00:38:16;9.20;99.90
22734;DHT22;11534;51.994;5.692;2023-05-17T00:40:42;9.20;99.90
22734;DHT22;11534;51.994;5.692;2023-05-17T00:43:08;9.20;99.90
22734;DHT22;11534;51.994;5.692;2023-05-17T00:45:34;9.10;99.90
22734;DHT22;11534;51.994;5.692;2023-05-17T00:48:00;9.10;99.90
22734;DHT22;11534;51.994;5.692;2023-05-17T00:50:26;9.10;99.90
22734;DHT22;11534;51.994;5.692;2023-05-17T00:52:51;9.10;99.90
22734;DHT22;11534;51.994;5.692;2023-05-17T00:55:17;9.10;99.90
22734;DHT22;11534;51.994;5.692;2023-05-17T00:57:47;9.00;99.90
22734;DHT22;11534;51.994;5.692;2023-05-17T01:00:13;9.00;99.90
22734;DHT22;11534;51.994;5.692;2023-05-17T01:02:39;9.00;99.90
22734;DHT22;11534;51.994;5.692;2023-05-17T01:05:05;9.00;99.90
22734;DHT22;11534;51.994;5.692;2023-05-17T01:07:31;9.00;99.90
22734;DHT22;11534;51.994;5.692;2023-05-17T01:09:57;9.10;99.90
22734;DHT22;11534;51.994;5.692;2023-05-17T01:12:31;9.00;99.90
22734;DHT22;11534;51.994;5.692;2023-05-17T01:15:40;9.00;99.90
22734;DHT22;11534;51.994;5.692;2023-05-17T01:18:24;8.90;99.90
22734;DHT22;11534;51.994;5.692;2023-05-17T01:20:52;8.90;99.90
22734;DHT22;11534;51.994;5.692;2023-05-17T01:26:19;8.90;99.90
22734;DHT22;11534;51.994;5.692;2023-05-17T01:28:51;8.90;99.90
22734;DHT22;11534;51.994;5.692;2023-05-17T01:31:17;8.90;99.90
22734;DHT22;11534;51.994;5.692;2023-05-17T01:33:44;8.90;99.90
22734;DHT22;11534;51.994;5.692;2023-05-17T01:36:10;8.90;99.90
22734;DHT22;11534;51.994;5.692;2023-05-17T01:38:35;8.90;99.90
22734;DHT22;11534;51.994;5.692;2023-05-17T01:44:08;9.00;99.90
22734;DHT22;11534;51.994;5.692;2023-05-17T01:46:39;9.00;99.90
22734;DHT22;11534;51.994;5.692;2023-05-17T01:51:47;9.00;99.90
22734;DHT22;11534;51.994;5.692;2023-05-17T01:54:14;9.00;99.90
22734;DHT22;11534;51.994;5.692;2023-05-17T01:56:47;9.00;99.90
22734;DHT22;11534;51.994;5.692;2023-05-17T01:59:19;9.10;99.90
22734;DHT22;11534;51.994;5.692;2023-05-17T02:01:48;9.10;99.90
22734;DHT22;11534;51.994;5.692;2023-05-17T02:04:13;9.10;99.90
22734;DHT22;11534;51.994;5.692;2023-05-17T02:06:40;9.20;99.90
22734;DHT22;11534;51.994;5.692;2023-05-17T02:09:06;9.20;99.90
22734;DHT22;11534;51.994;5.692;2023-05-17T02:11:31;9.30;99.90
22734;DHT22;11534;51.994;5.692;2023-05-17T02:13:57;9.30;99.90
22734;DHT22;11534;51.994;5.692;2023-05-17T02:16:23;9.30;99.90
22734;DHT22;11534;51.994;5.692;2023-05-17T02:18:49;9.30;99.90
22734;DHT22;11534;51.994;5.692;2023-05-17T02:21:15;9.30;99.90
22734;DHT22;11534;51.994;5.692;2023-05-17T02:23:42;9.40;99.90
22734;DHT22;11534;51.994;5.692;2023-05-17T02:26:08;9.40;99.90
22734;DHT22;11534;51.994;5.692;2023-05-17T02:28:34;9.40;99.90
22734;DHT22;11534;51.994;5.692;2023-05-17T02:31:00;9.50;99.90
22734;DHT22;11534;51.994;5.692;2023-05-17T02:33:25;9.50;99.90
22734;DHT22;11534;51.994;5.692;2023-05-17T02:35:52;9.50;99.90
22734;DHT22;11534;51.994;5.692;2023-05-17T02:38:17;9.50;99.90
22734;DHT22;11534;51.994;5.692;2023-05-17T02:40:43;9.60;99.90
22734;DHT22;11534;51.994;5.692;2023-05-17T02:43:08;9.60;99.90
22734;DHT22;11534;51.994;5.692;2023-05-17T02:45:34;9.60;99.90
22734;DHT22;11534;51.994;5.692;2023-05-17T02:48:00;9.60;99.90
22734;DHT22;11534;51.994;5.692;2023-05-17T02:50:25;9.60;99.90
22734;DHT22;11534;51.994;5.692;2023-05-17T02:52:51;9.60;99.90
22734;DHT22;11534;51.994;5.692;2023-05-17T02:55:17;9.70;99.90
22734;DHT22;11534;51.994;5.692;2023-05-17T02:57:42;9.70;99.90
22734;DHT22;11534;51.994;5.692;2023-05-17T03:00:08;9.70;99.90
22734;DHT22;11534;51.994;5.692;2023-05-17T03:02:34;9.70;99.90
22734;DHT22;11534;51.994;5.692;2023-05-17T03:04:59;9.70;99.90
22734;DHT22;11534;51.994;5.692;2023-05-17T03:07:25;9.80;99.90
22734;DHT22;11534;51.994;5.692;2023-05-17T03:09:51;9.80;99.90
22734;DHT22;11534;51.994;5.692;2023-05-17T03:12:16;9.80;99.90
22734;DHT22;11534;51.994;5.692;2023-05-17T03:14:42;9.80;99.90
22734;DHT22;11534;51.994;5.692;2023-05-17T03:17:08;9.80;99.90
22734;DHT22;11534;51.994;5.692;2023-05-17T03:19:33;9.80;99.90
22734;DHT22;11534;51.994;5.692;2023-05-17T03:21:59;9.80;99.90
22734;DHT22;11534;51.994;5.692;2023-05-17T03:24:25;9.80;99.90
22734;DHT22;11534;51.994;5.692;2023-05-17T03:26:50;9.80;99.90
22734;DHT22;11534;51.994;5.692;2023-05-17T03:29:16;9.80;99.90
22734;DHT22;11534;51.994;5.692;2023-05-17T03:31:42;9.80;99.90
22734;DHT22;11534;51.994;5.692;2023-05-17T03:34:07;9.80;99.90
22734;DHT22;11534;51.994;5.692;2023-05-17T03:36:33;9.80;99.90
22734;DHT22;11534;51.994;5.692;2023-05-17T03:38:59;9.80;99.90
22734;DHT22;11534;51.994;5.692;2023-05-17T03:41:25;9.80;99.90
22734;DHT22;11534;51.994;5.692;2023-05-17T03:43:51;9.90;99.90
22734;DHT22;11534;51.994;5.692;2023-05-17T03:46:16;9.80;99.90
22734;DHT22;11534;51.994;5.692;2023-05-17T03:48:42;9.80;99.90
22734;DHT22;11534;51.994;5.692;2023-05-17T03:51:08;9.90;99.90
22734;DHT22;11534;51.994;5.692;2023-05-17T03:53:34;9.90;99.90
22734;DHT22;11534;51.994;5.692;2023-05-17T03:56:05;9.90;99.90
22734;DHT22;11534;51.994;5.692;2023-05-17T03:58:31;9.90;99.90
22734;DHT22;11534;51.994;5.692;2023-05-17T04:00:56;9.80;99.90
22734;DHT22;11534;51.994;5.692;2023-05-17T04:03:22;9.80;99.90
22734;DHT22;11534;51.994;5.692;2023-05-17T04:05:47;9.80;99.90
22734;DHT22;11534;51.994;5.692;2023-05-17T04:08:13;9.80;99.90
22734;DHT22;11534;51.994;5.692;2023-05-17T04:10:39;9.80;99.90
22734;DHT22;11534;51.994;5.692;2023-05-17T04:13:07;9.80;99.90
22734;DHT22;11534;51.994;5.692;2023-05-17T04:15:33;9.90;99.90
22734;DHT22;11534;51.994;5.692;2023-05-17T04:17:59;9.90;99.90
22734;DHT22;11534;51.994;5.692;2023-05-17T04:20:25;9.80;99.90
22734;DHT22;11534;51.994;5.692;2023-05-17T04:22:51;9.70;99.90
22734;DHT22;11534;51.994;5.692;2023-05-17T04:25:17;9.70;99.90
22734;DHT22;11534;51.994;5.692;2023-05-17T04:27:44;9.70;99.90
22734;DHT22;11534;51.994;5.692;2023-05-17T04:30:11;9.70;99.90
22734;DHT22;11534;51.994;5.692;2023-05-17T04:32:38;9.60;99.90
22734;DHT22;11534;51.994;5.692;2023-05-17T04:35:04;9.60;99.90
22734;DHT22;11534;51.994;5.692;2023-05-17T04:37:30;9.60;99.90
22734;DHT22;11534;51.994;5.692;2023-05-17T04:39:57;9.50;99.90
22734;DHT22;11534;51.994;5.692;2023-05-17T04:42:23;9.50;99.90
22734;DHT22;11534;51.994;5.692;2023-05-17T04:44:49;9.50;99.90
22734;DHT22;11534;51.994;5.692;2023-05-17T04:47:14;9.50;99.90
22734;DHT22;11534;51.994;5.692;2023-05-17T04:49:40;9.50;99.90
22734;DHT22;11534;51.994;5.692;2023-05-17T04:52:06;9.50;99.90
22734;DHT22;11534;51.994;5.692;2023-05-17T04:54:32;9.50;99.90
22734;DHT22;11534;51.994;5.692;2023-05-17T04:56:58;9.50;99.90
22734;DHT22;11534;51.994;5.692;2023-05-17T04:59:24;9.50;99.90
22734;DHT22;11534;51.994;5.692;2023-05-17T05:01:50;9.50;99.90
22734;DHT22;11534;51.994;5.692;2023-05-17T05:04:17;9.50;99.90
22734;DHT22;11534;51.994;5.692;2023-05-17T05:06:42;9.50;99.90
22734;DHT22;11534;51.994;5.692;2023-05-17T05:09:08;9.50;99.90
22734;DHT22;11534;51.994;5.692;2023-05-17T05:11:34;9.60;99.90
22734;DHT22;11534;51.994;5.692;2023-05-17T05:14:00;9.50;99.90
22734;DHT22;11534;51.994;5.692;2023-05-17T05:16:26;9.50;99.90
22734;DHT22;11534;51.994;5.692;2023-05-17T05:18:51;9.50;99.90
22734;DHT22;11534;51.994;5.692;2023-05-17T05:21:17;9.60;99.90
22734;DHT22;11534;51.994;5.692;2023-05-17T05:23:43;9.60;99.90
22734;DHT22;11534;51.994;5.692;2023-05-17T05:26:09;9.60;99.90
22734;DHT22;11534;51.994;5.692;2023-05-17T05:28:34;9.60;99.90
22734;DHT22;11534;51.994;5.692;2023-05-17T05:31:00;9.60;99.90
22734;DHT22;11534;51.994;5.692;2023-05-17T05:33:26;9.60;99.90
22734;DHT22;11534;51.994;5.692;2023-05-17T05:35:51;9.60;99.90
22734;DHT22;11534;51.994;5.692;2023-05-17T05:38:17;9.60;99.90
22734;DHT22;11534;51.994;5.692;2023-05-17T05:40:45;9.60;99.90
22734;DHT22;11534;51.994;5.692;2023-05-17T05:43:12;9.70;99.90
22734;DHT22;11534;51.994;5.692;2023-05-17T05:45:39;9.70;99.90
22734;DHT22;11534;51.994;5.692;2023-05-17T05:48:12;9.70;99.90
22734;DHT22;11534;51.994;5.692;2023-05-17T05:50:38;9.70;99.90
22734;DHT22;11534;51.994;5.692;2023-05-17T05:53:04;9.70;99.90
22734;DHT22;11534;51.994;5.692;2023-05-17T05:55:30;9.70;99.90
22734;DHT22;11534;51.994;5.692;2023-05-17T05:57:56;9.80;99.90
22734;DHT22;11534;51.994;5.692;2023-05-17T06:00:22;9.80;99.90
22734;DHT22;11534;51.994;5.692;2023-05-17T06:02:47;9.80;99.90
22734;DHT22;11534;51.994;5.692;2023-05-17T06:05:13;9.90;99.90
22734;DHT22;11534;51.994;5.692;2023-05-17T06:07:38;9.80;99.90
22734;DHT22;11534;51.994;5.692;2023-05-17T06:10:05;9.90;99.90
22734;DHT22;11534;51.994;5.692;2023-05-17T06:12:31;9.90;99.90
22734;DHT22;11534;51.994;5.692;2023-05-17T06:14:56;9.90;99.90
22734;DHT22;11534;51.994;5.692;2023-05-17T06:17:22;9.90;99.90
22734;DHT22;11534;51.994;5.692;2023-05-17T06:19:48;9.90;99.90
22734;DHT22;11534;51.994;5.692;2023-05-17T06:22:14;10.00;99.90
22734;DHT22;11534;51.994;5.692;2023-05-17T06:24:40;10.00;99.90
22734;DHT22;11534;51.994;5.692;2023-05-17T06:27:06;10.00;99.90
22734;DHT22;11534;51.994;5.692;2023-05-17T06:29:31;10.00;99.90
22734;DHT22;11534;51.994;5.692;2023-05-17T06:31:57;10.00;99.90
22734;DHT22;11534;51.994;5.692;2023-05-17T06:34:24;10.10;99.90
22734;DHT22;11534;51.994;5.692;2023-05-17T06:36:50;10.20;99.90
22734;DHT22;11534;51.994;5.692;2023-05-17T06:39:16;10.20;99.90
22734;DHT22;11534;51.994;5.692;2023-05-17T06:41:42;10.30;99.90
22734;DHT22;11534;51.994;5.692;2023-05-17T06:44:08;10.30;99.90
22734;DHT22;11534;51.994;5.692;2023-05-17T06:46:34;10.30;99.90
22734;DHT22;11534;51.994;5.692;2023-05-17T06:48:59;10.40;99.90
22734;DHT22;11534;51.994;5.692;2023-05-17T06:51:25;10.50;99.90
22734;DHT22;11534;51.994;5.692;2023-05-17T06:53:50;10.40;99.90
22734;DHT22;11534;51.994;5.692;2023-05-17T06:56:16;10.50;99.90
22734;DHT22;11534;51.994;5.692;2023-05-17T06:58:42;10.50;99.90
22734;DHT22;11534;51.994;5.692;2023-05-17T07:01:08;10.50;99.90
22734;DHT22;11534;51.994;5.692;2023-05-17T07:03:33;10.50;99.90
22734;DHT22;11534;51.994;5.692;2023-05-17T07:06:00;10.60;99.90
22734;DHT22;11534;51.994;5.692;2023-05-17T07:08:26;10.60;99.90
22734;DHT22;11534;51.994;5.692;2023-05-17T07:10:52;10.60;99.90
22734;DHT22;11534;51.994;5.692;2023-05-17T07:13:18;10.60;99.90
22734;DHT22;11534;51.994;5.692;2023-05-17T07:15:44;10.70;99.90
22734;DHT22;11534;51.994;5.692;2023-05-17T07:18:10;10.80;99.90
22734;DHT22;11534;51.994;5.692;2023-05-17T07:20:35;10.90;99.90
22734;DHT22;11534;51.994;5.692;2023-05-17T07:23:01;10.90;99.90
22734;DHT22;11534;51.994;5.692;2023-05-17T07:25:27;11.00;99.90
22734;DHT22;11534;51.994;5.692;2023-05-17T07:27:53;11.10;99.90
22734;DHT22;11534;51.994;5.692;2023-05-17T07:30:19;11.10;99.90
22734;DHT22;11534;51.994;5.692;2023-05-17T07:32:46;11.30;99.90
22734;DHT22;11534;51.994;5.692;2023-05-17T07:35:12;11.40;99.90
22734;DHT22;11534;51.994;5.692;2023-05-17T07:37:37;11.40;99.90
22734;DHT22;11534;51.994;5.692;2023-05-17T07:40:03;11.40;99.90
22734;DHT22;11534;51.994;5.692;2023-05-17T07:42:30;11.40;99.90
22734;DHT22;11534;51.994;5.692;2023-05-17T07:44:55;11.30;99.90
22734;DHT22;11534;51.994;5.692;2023-05-17T07:47:21;11.20;99.90
22734;DHT22;11534;51.994;5.692;2023-05-17T07:49:47;11.10;99.90
22734;DHT22;11534;51.994;5.692;2023-05-17T07:52:13;11.20;99.90
22734;DHT22;11534;51.994;5.692;2023-05-17T07:54:38;11.10;99.90
22734;DHT22;11534;51.994;5.692;2023-05-17T07:57:04;11.10;99.90
22734;DHT22;11534;51.994;5.692;2023-05-17T07:59:30;11.10;99.90
22734;DHT22;11534;51.994;5.692;2023-05-17T08:01:56;11.10;99.90
22734;DHT22;11534;51.994;5.692;2023-05-17T08:04:21;11.10;99.90
22734;DHT22;11534;51.994;5.692;2023-05-17T08:06:48;11.10;99.90
22734;DHT22;11534;51.994;5.692;2023-05-17T08:09:14;11.10;99.90
22734;DHT22;11534;51.994;5.692;2023-05-17T08:11:41;11.20;99.90
22734;DHT22;11534;51.994;5.692;2023-05-17T08:14:16;11.20;99.90
22734;DHT22;11534;51.994;5.692;2023-05-17T08:16:44;11.10;99.90
22734;DHT22;11534;51.994;5.692;2023-05-17T08:19:12;11.20;99.90
22734;DHT22;11534;51.994;5.692;2023-05-17T08:21:41;11.20;99.90
22734;DHT22;11534;51.994;5.692;2023-05-17T08:24:07;11.40;99.90
22734;DHT22;11534;51.994;5.692;2023-05-17T08:26:33;11.60;99.90
22734;DHT22;11534;51.994;5.692;2023-05-17T08:29:01;11.90;99.90
22734;DHT22;11534;51.994;5.692;2023-05-17T08:31:28;12.10;99.90
22734;DHT22;11534;51.994;5.692;2023-05-17T08:33:54;12.20;99.90
22734;DHT22;11534;51.994;5.692;2023-05-17T08:36:19;12.10;99.90
22734;DHT22;11534;51.994;5.692;2023-05-17T08:38:45;12.00;99.90
22734;DHT22;11534;51.994;5.692;2023-05-17T08:41:12;12.10;99.90
22734;DHT22;11534;51.994;5.692;2023-05-17T08:43:38;12.30;99.90
22734;DHT22;11534;51.994;5.692;2023-05-17T08:46:04;12.40;99.90
22734;DHT22;11534;51.994;5.692;2023-05-17T08:48:30;12.40;99.90
22734;DHT22;11534;51.994;5.692;2023-05-17T08:50:56;12.60;99.90
22734;DHT22;11534;51.994;5.692;2023-05-17T08:53:23;12.70;99.90
22734;DHT22;11534;51.994;5.692;2023-05-17T08:55:50;12.70;99.90
22734;DHT22;11534;51.994;5.692;2023-05-17T08:58:18;12.60;99.90
22734;DHT22;11534;51.994;5.692;2023-05-17T09:00:46;12.70;99.90
22734;DHT22;11534;51.994;5.692;2023-05-17T09:03:15;12.60;99.90
22734;DHT22;11534;51.994;5.692;2023-05-17T09:05:42;12.70;99.90
22734;DHT22;11534;51.994;5.692;2023-05-17T09:08:09;12.70;99.90
22734;DHT22;11534;51.994;5.692;2023-05-17T09:10:40;12.80;99.90
22734;DHT22;11534;51.994;5.692;2023-05-17T09:13:06;12.90;99.90
22734;DHT22;11534;51.994;5.692;2023-05-17T09:15:32;12.80;99.90
22734;DHT22;11534;51.994;5.692;2023-05-17T09:17:59;12.90;99.90
22734;DHT22;11534;51.994;5.692;2023-05-17T09:20:27;13.00;99.90
22734;DHT22;11534;51.994;5.692;2023-05-17T09:22:59;13.00;99.90
22734;DHT22;11534;51.994;5.692;2023-05-17T09:25:27;13.00;99.90
22734;DHT22;11534;51.994;5.692;2023-05-17T09:27:54;12.90;99.90
22734;DHT22;11534;51.994;5.692;2023-05-17T09:30:29;12.70;99.90
22734;DHT22;11534;51.994;5.692;2023-05-17T09:32:55;12.60;99.90
22734;DHT22;11534;51.994;5.692;2023-05-17T09:35:28;12.60;99.90
22734;DHT22;11534;51.994;5.692;2023-05-17T09:40:29;12.80;99.90
22734;DHT22;11534;51.994;5.692;2023-05-17T09:42:56;12.90;99.90
22734;DHT22;11534;51.994;5.692;2023-05-17T09:45:22;13.00;99.90
22734;DHT22;11534;51.994;5.692;2023-05-17T09:47:49;13.20;99.90
22734;DHT22;11534;51.994;5.692;2023-05-17T09:50:17;13.30;99.90
22734;DHT22;11534;51.994;5.692;2023-05-17T09:52:43;13.20;99.90
22734;DHT22;11534;51.994;5.692;2023-05-17T09:55:09;13.20;99.90
22734;DHT22;11534;51.994;5.692;2023-05-17T09:57:40;13.40;99.90
22734;DHT22;11534;51.994;5.692;2023-05-17T10:00:07;13.60;99.90
22734;DHT22;11534;51.994;5.692;2023-05-17T10:02:37;13.80;99.90
22734;DHT22;11534;51.994;5.692;2023-05-17T10:05:04;14.00;99.90
22734;DHT22;11534;51.994;5.692;2023-05-17T10:07:33;14.00;99.90
22734;DHT22;11534;51.994;5.692;2023-05-17T10:09:59;13.90;99.90
22734;DHT22;11534;51.994;5.692;2023-05-17T10:12:27;13.70;99.90
22734;DHT22;11534;51.994;5.692;2023-05-17T10:14:55;13.50;99.90
22734;DHT22;11534;51.994;5.692;2023-05-17T10:17:25;13.90;99.90
22734;DHT22;11534;51.994;5.692;2023-05-17T10:19:53;14.30;99.90
22734;DHT22;11534;51.994;5.692;2023-05-17T10:22:20;14.70;99.90
22734;DHT22;11534;51.994;5.692;2023-05-17T10:24:47;14.80;99.90
22734;DHT22;11534;51.994;5.692;2023-05-17T10:27:14;14.70;99.90
22734;DHT22;11534;51.994;5.692;2023-05-17T10:29:40;14.80;99.90
22734;DHT22;11534;51.994;5.692;2023-05-17T10:32:06;15.20;99.90
22734;DHT22;11534;51.994;5.692;2023-05-17T10:34:34;15.60;99.90
22734;DHT22;11534;51.994;5.692;2023-05-17T10:37:01;15.70;99.90
22734;DHT22;11534;51.994;5.692;2023-05-17T10:39:27;15.90;99.90
22734;DHT22;11534;51.994;5.692;2023-05-17T10:41:55;16.30;99.90
22734;DHT22;11534;51.994;5.692;2023-05-17T10:44:22;16.70;99.90
22734;DHT22;11534;51.994;5.692;2023-05-17T10:46:55;16.60;99.90
22734;DHT22;11534;51.994;5.692;2023-05-17T10:51:51;16.70;99.90
22734;DHT22;11534;51.994;5.692;2023-05-17T10:54:17;17.10;99.90
22734;DHT22;11534;51.994;5.692;2023-05-17T10:56:53;17.20;99.90
22734;DHT22;11534;51.994;5.692;2023-05-17T10:59:26;17.40;99.90
22734;DHT22;11534;51.994;5.692;2023-05-17T11:02:08;17.60;99.90
22734;DHT22;11534;51.994;5.692;2023-05-17T11:04:39;17.70;99.90
22734;DHT22;11534;51.994;5.692;2023-05-17T11:12:41;17.40;99.90
22734;DHT22;11534;51.994;5.692;2023-05-17T11:15:10;17.80;99.90
22734;DHT22;11534;51.994;5.692;2023-05-17T11:20:09;18.80;99.90
22734;DHT22;11534;51.994;5.692;2023-05-17T11:23:11;18.90;99.90
22734;DHT22;11534;51.994;5.692;2023-05-17T11:25:40;18.60;99.90
22734;DHT22;11534;51.994;5.692;2023-05-17T11:28:17;18.40;99.90
22734;DHT22;11534;51.994;5.692;2023-05-17T11:30:43;18.20;99.90
22734;DHT22;11534;51.994;5.692;2023-05-17T11:33:16;18.50;99.90
22734;DHT22;11534;51.994;5.692;2023-05-17T11:35:42;18.80;99.90
22734;DHT22;11534;51.994;5.692;2023-05-17T11:38:18;19.10;99.90
22734;DHT22;11534;51.994;5.692;2023-05-17T11:40:46;19.30;99.90
22734;DHT22;11534;51.994;5.692;2023-05-17T11:45:48;19.20;99.90
22734;DHT22;11534;51.994;5.692;2023-05-17T11:48:16;19.00;99.90
22734;DHT22;11534;51.994;5.692;2023-05-17T11:50:44;19.30;99.90
22734;DHT22;11534;51.994;5.692;2023-05-17T11:53:10;19.40;99.90
22734;DHT22;11534;51.994;5.692;2023-05-17T11:55:49;19.40;99.90
22734;DHT22;11534;51.994;5.692;2023-05-17T11:58:17;19.70;99.90
22734;DHT22;11534;51.994;5.692;2023-05-17T12:00:43;20.10;99.90
22734;DHT22;11534;51.994;5.692;2023-05-17T12:03:27;19.60;99.90
22734;DHT22;11534;51.994;5.692;2023-05-17T12:06:06;19.60;99.90
22734;DHT22;11534;51.994;5.692;2023-05-17T12:08:36;19.80;99.90
22734;DHT22;11534;51.994;5.692;2023-05-17T12:11:03;19.80;99.90
22734;DHT22;11534;51.994;5.692;2023-05-17T12:13:30;19.80;99.90
22734;DHT22;11534;51.994;5.692;2023-05-17T12:15:58;20.00;99.80
22734;DHT22;11534;51.994;5.692;2023-05-17T12:18:38;19.60;99.90
22734;DHT22;11534;51.994;5.692;2023-05-17T12:21:05;19.60;99.90
22734;DHT22;11534;51.994;5.692;2023-05-17T12:23:42;19.60;99.30
22734;DHT22;11534;51.994;5.692;2023-05-17T12:26:09;19.70;99.00
22734;DHT22;11534;51.994;5.692;2023-05-17T12:28:40;20.00;99.50
22734;DHT22;11534;51.994;5.692;2023-05-17T12:31:11;20.10;99.30
22734;DHT22;11534;51.994;5.692;2023-05-17T12:33:39;20.20;98.20
22734;DHT22;11534;51.994;5.692;2023-05-17T12:36:10;20.40;98.40
22734;DHT22;11534;51.994;5.692;2023-05-17T12:38:41;20.70;98.30
22734;DHT22;11534;51.994;5.692;2023-05-17T12:41:10;20.50;97.10
22734;DHT22;11534;51.994;5.692;2023-05-17T12:43:37;20.40;97.50
22734;DHT22;11534;51.994;5.692;2023-05-17T12:46:08;20.60;97.90
22734;DHT22;11534;51.994;5.692;2023-05-17T12:48:38;20.70;99.00
22734;DHT22;11534;51.994;5.692;2023-05-17T12:51:14;20.80;97.30
22734;DHT22;11534;51.994;5.692;2023-05-17T12:56:08;20.30;95.70
22734;DHT22;11534;51.994;5.692;2023-05-17T12:58:34;20.10;96.40
22734;DHT22;11534;51.994;5.692;2023-05-17T13:01:03;20.40;97.70
22734;DHT22;11534;51.994;5.692;2023-05-17T13:03:32;20.80;98.10
22734;DHT22;11534;51.994;5.692;2023-05-17T13:06:07;20.80;95.60
22734;DHT22;11534;51.994;5.692;2023-05-17T13:08:34;20.50;97.60
22734;DHT22;11534;51.994;5.692;2023-05-17T13:11:13;20.70;97.80
22734;DHT22;11534;51.994;5.692;2023-05-17T13:13:39;21.10;96.50
22734;DHT22;11534;51.994;5.692;2023-05-17T13:16:06;21.20;95.10
22734;DHT22;11534;51.994;5.692;2023-05-17T13:18:51;21.10;95.00
22734;DHT22;11534;51.994;5.692;2023-05-17T13:21:18;21.30;97.30
22734;DHT22;11534;51.994;5.692;2023-05-17T13:23:48;21.30;95.20
22734;DHT22;11534;51.994;5.692;2023-05-17T13:26:16;21.50;96.40
22734;DHT22;11534;51.994;5.692;2023-05-17T13:28:42;21.70;96.00
22734;DHT22;11534;51.994;5.692;2023-05-17T13:31:08;21.90;95.50
22734;DHT22;11534;51.994;5.692;2023-05-17T13:33:34;21.70;94.10
22734;DHT22;11534;51.994;5.692;2023-05-17T13:35:59;21.60;94.30
22734;DHT22;11534;51.994;5.692;2023-05-17T13:38:25;21.60;95.50
22734;DHT22;11534;51.994;5.692;2023-05-17T13:40:51;21.80;94.80
22734;DHT22;11534;51.994;5.692;2023-05-17T13:43:17;21.90;95.00
22734;DHT22;11534;51.994;5.692;2023-05-17T13:45:43;21.50;94.80
22734;DHT22;11534;51.994;5.692;2023-05-17T13:48:08;21.30;95.00
22734;DHT22;11534;51.994;5.692;2023-05-17T13:50:34;21.30;94.50
22734;DHT22;11534;51.994;5.692;2023-05-17T13:53:01;21.00;93.70
22734;DHT22;11534;51.994;5.692;2023-05-17T13:55:27;21.10;95.20
22734;DHT22;11534;51.994;5.692;2023-05-17T13:57:53;21.30;95.30
22734;DHT22;11534;51.994;5.692;2023-05-17T14:00:20;21.50;93.40
22734;DHT22;11534;51.994;5.692;2023-05-17T14:02:46;21.40;94.80
22734;DHT22;11534;51.994;5.692;2023-05-17T14:05:12;21.40;93.90
22734;DHT22;11534;51.994;5.692;2023-05-17T14:07:39;21.40;95.80
22734;DHT22;11534;51.994;5.692;2023-05-17T14:10:10;21.40;95.30
22734;DHT22;11534;51.994;5.692;2023-05-17T14:12:38;21.50;94.20
22734;DHT22;11534;51.994;5.692;2023-05-17T14:15:04;20.90;94.30
22734;DHT22;11534;51.994;5.692;2023-05-17T14:17:30;20.90;93.70
22734;DHT22;11534;51.994;5.692;2023-05-17T14:19:57;20.60;94.60
22734;DHT22;11534;51.994;5.692;2023-05-17T14:22:23;20.70;97.00
22734;DHT22;11534;51.994;5.692;2023-05-17T14:24:48;20.30;93.00
22734;DHT22;11534;51.994;5.692;2023-05-17T14:27:14;20.30;94.90
22734;DHT22;11534;51.994;5.692;2023-05-17T14:29:40;20.10;95.30
22734;DHT22;11534;51.994;5.692;2023-05-17T14:32:06;20.30;94.50
22734;DHT22;11534;51.994;5.692;2023-05-17T14:34:31;20.10;95.20
22734;DHT22;11534;51.994;5.692;2023-05-17T14:36:57;19.80;95.40
22734;DHT22;11534;51.994;5.692;2023-05-17T14:39:23;19.90;95.90
22734;DHT22;11534;51.994;5.692;2023-05-17T14:41:48;19.70;95.90
22734;DHT22;11534;51.994;5.692;2023-05-17T14:44:14;19.60;95.00
22734;DHT22;11534;51.994;5.692;2023-05-17T14:46:39;19.90;97.20
22734;DHT22;11534;51.994;5.692;2023-05-17T14:49:05;20.10;95.30
22734;DHT22;11534;51.994;5.692;2023-05-17T14:51:31;19.70;94.90
22734;DHT22;11534;51.994;5.692;2023-05-17T14:53:57;19.20;95.20
22734;DHT22;11534;51.994;5.692;2023-05-17T14:56:23;19.00;96.70
22734;DHT22;11534;51.994;5.692;2023-05-17T14:58:49;19.00;95.60
22734;DHT22;11534;51.994;5.692;2023-05-17T15:01:15;18.80;94.70
22734;DHT22;11534;51.994;5.692;2023-05-17T15:03:42;18.40;96.00
22734;DHT22;11534;51.994;5.692;2023-05-17T15:06:07;18.10;96.30
22734;DHT22;11534;51.994;5.692;2023-05-17T15:08:34;18.10;96.40
22734;DHT22;11534;51.994;5.692;2023-05-17T15:10:59;18.00;95.80
22734;DHT22;11534;51.994;5.692;2023-05-17T15:13:25;17.90;95.00
22734;DHT22;11534;51.994;5.692;2023-05-17T15:15:51;17.80;95.80
22734;DHT22;11534;51.994;5.692;2023-05-17T15:18:17;17.50;96.10
22734;DHT22;11534;51.994;5.692;2023-05-17T15:20:43;17.40;96.30
22734;DHT22;11534;51.994;5.692;2023-05-17T15:23:09;17.40;96.70
22734;DHT22;11534;51.994;5.692;2023-05-17T15:25:35;17.40;98.50
22734;DHT22;11534;51.994;5.692;2023-05-17T15:28:00;17.50;97.50
22734;DHT22;11534;51.994;5.692;2023-05-17T15:30:26;17.30;97.00
22734;DHT22;11534;51.994;5.692;2023-05-17T15:32:57;17.20;98.50
22734;DHT22;11534;51.994;5.692;2023-05-17T15:35:23;17.20;99.40
22734;DHT22;11534;51.994;5.692;2023-05-17T15:37:52;17.30;98.80
22734;DHT22;11534;51.994;5.692;2023-05-17T15:40:18;17.30;99.70
22734;DHT22;11534;51.994;5.692;2023-05-17T15:42:49;17.30;99.60
22734;DHT22;11534;51.994;5.692;2023-05-17T15:45:15;17.10;97.30
22734;DHT22;11534;51.994;5.692;2023-05-17T15:47:40;16.70;97.00
22734;DHT22;11534;51.994;5.692;2023-05-17T15:50:06;16.50;97.10
22734;DHT22;11534;51.994;5.692;2023-05-17T15:52:32;16.50;96.90
22734;DHT22;11534;51.994;5.692;2023-05-17T15:54:58;16.30;97.60
22734;DHT22;11534;51.994;5.692;2023-05-17T15:57:23;16.20;97.60
22734;DHT22;11534;51.994;5.692;2023-05-17T15:59:49;16.10;97.90
22734;DHT22;11534;51.994;5.692;2023-05-17T16:02:16;16.20;98.80
22734;DHT22;11534;51.994;5.692;2023-05-17T16:04:42;16.10;99.10